Time;durP1;ratioP1;P1;durP2;ratioP2;P2;SDS_P1;SDS_P2;PMS_P1;PMS_P2;Temp;Humidity;BMP_temperature;BMP_pressure;BME280_temperature;BME280_humidity;BME280_pressure;Samples;Min_cycle;Max_cycle;Signal;HPM_P1;HPM_P2
2023/04/16 00:00:39;;;;;;;2.55;1.40;;;6.80;99.90;;;5.93;100.00;102208.84;4150445;28;20378;-78
2023/04/16 00:02:40;;;;;;;3.08;1.40;;;6.70;99.90;;;5.88;100.00;102205.66;4124135;28;20022;-78
2023/04/16 00:04:41;;;;;;;3.40;1.63;;;6.70;99.90;;;5.85;100.00;102211.91;4135763;28;20042;-78
2023/04/16 00:06:42;;;;;;;2.53;1.50;;;6.70;99.90;;;5.76;100.00;102208.97;4136806;28;20025;-78
2023/04/16 00:08:43;;;;;;;4.10;1.60;;;6.70;99.90;;;5.79;100.00;102212.25;4150773;28;20375;-78
2023/04/16 00:10:44;;;;;;;4.00;2.40;;;6.60;99.90;;;5.83;100.00;102212.88;4120784;28;20023;-78
2023/04/16 00:12:44;;;;;;;7.25;2.53;;;6.60;99.90;;;5.85;100.00;102205.81;4120996;28;20061;-78
2023/04/16 00:14:45;;;;;;;5.13;2.60;;;6.60;99.90;;;5.88;100.00;102203.88;4129822;28;20049;-78
2023/04/16 00:16:46;;;;;;;4.72;2.38;;;6.70;99.90;;;5.92;100.00;102199.28;4134162;28;20030;-78
2023/04/16 00:18:47;;;;;;;4.05;2.40;;;6.70;99.90;;;5.95;100.00;102199.09;4135618;28;20034;-78
2023/04/16 00:20:49;;;;;;;3.83;2.67;;;6.80;99.90;;;5.91;100.00;102189.75;4127719;28;20101;-78
2023/04/16 00:22:50;;;;;;;3.55;1.88;;;6.80;99.90;;;5.91;100.00;102187.16;4135186;28;20034;-78
2023/04/16 00:24:51;;;;;;;3.95;1.75;;;6.80;99.90;;;5.91;100.00;102197.63;4133235;28;20029;-78
2023/04/16 00:26:52;;;;;;;2.83;1.88;;;6.80;99.90;;;5.92;100.00;102201.91;4136938;28;20054;-78
2023/04/16 00:28:53;;;;;;;2.15;1.42;;;6.70;99.90;;;5.87;100.00;102211.81;4135198;28;20513;-78
2023/04/16 00:30:54;;;;;;;2.30;1.40;;;6.70;99.90;;;5.81;100.00;102212.13;4136588;28;20030;-78
2023/04/16 00:32:55;;;;;;;3.92;1.77;;;6.70;99.90;;;5.74;100.00;102222.13;4135479;28;20604;-78
2023/04/16 00:34:56;;;;;;;2.85;1.73;;;6.60;99.90;;;5.62;100.00;102209.75;4106524;28;20018;-78
2023/04/16 00:36:57;;;;;;;2.53;1.83;;;6.60;99.90;;;5.63;100.00;102218.44;4135132;28;20506;-78
2023/04/16 00:38:57;;;;;;;6.00;2.45;;;6.50;99.90;;;5.56;100.00;102212.72;4136487;28;20379;-78
2023/04/16 00:40:58;;;;;;;5.38;1.95;;;6.40;99.90;;;5.54;100.00;102198.88;4136421;28;20042;-78
2023/04/16 00:42:59;;;;;;;5.32;1.98;;;6.40;99.90;;;5.54;100.00;102185.78;4134949;28;20030;-78
2023/04/16 00:45:00;;;;;;;4.70;2.03;;;6.40;99.90;;;5.60;100.00;102182.81;4136201;28;20100;-78
2023/04/16 00:47:02;;;;;;;5.78;2.60;;;6.40;99.90;;;5.64;100.00;102181.72;4126683;28;20026;-78
2023/04/16 00:49:03;;;;;;;3.72;1.75;;;6.40;99.90;;;5.61;100.00;102175.81;4118779;28;20031;-79
2023/04/16 00:51:06;;;;;;;2.97;1.75;;;6.40;99.90;;;5.63;100.00;102192.25;4122384;28;20035;-78
2023/04/16 00:53:07;;;;;;;2.88;1.75;;;6.40;99.90;;;5.40;100.00;102170.06;4125554;28;20121;-78
2023/04/16 00:55:12;;;;;;;3.58;1.92;;;6.40;99.90;;;5.42;100.00;102189.09;4130195;28;20032;-78
2023/04/16 00:57:13;;;;;;;5.38;2.35;;;6.30;99.90;;;5.44;100.00;102185.47;4135069;28;20026;-78
2023/04/16 00:59:15;;;;;;;4.32;2.25;;;6.30;99.90;;;5.39;100.00;102186.66;4135135;28;20033;-78
2023/04/16 01:01:16;;;;;;;5.22;1.95;;;6.20;99.90;;;5.38;100.00;102188.44;4125916;28;20089;-78
2023/04/16 01:03:16;;;;;;;3.88;2.35;;;6.20;99.90;;;5.36;100.00;102184.22;4134887;28;20443;-78
2023/04/16 01:05:18;;;;;;;5.38;2.00;;;6.30;99.90;;;5.37;100.00;102184.16;4134846;28;20022;-78
2023/04/16 01:07:18;;;;;;;3.83;2.38;;;6.20;99.90;;;5.38;100.00;102180.59;4134924;28;20022;-78
2023/04/16 01:09:19;;;;;;;4.25;2.10;;;6.20;99.90;;;5.45;100.00;102186.31;4135010;28;20049;-78
2023/04/16 01:11:20;;;;;;;4.20;2.80;;;6.30;99.90;;;5.45;100.00;102189.78;4134814;28;20026;-78
2023/04/16 01:13:21;;;;;;;4.93;2.33;;;6.20;99.90;;;5.33;100.00;102168.69;4134787;28;20038;-78
2023/04/16 01:15:22;;;;;;;6.95;3.58;;;6.30;99.90;;;5.43;100.00;102198.66;4135085;28;20038;-78
2023/04/16 01:17:23;;;;;;;4.03;2.17;;;6.30;99.90;;;5.43;100.00;102201.28;4151069;28;20030;-78
2023/04/16 01:19:24;;;;;;;5.30;2.33;;;6.30;99.90;;;5.31;100.00;102181.88;4134709;28;20117;-78
2023/04/16 01:21:25;;;;;;;4.00;1.77;;;6.20;99.90;;;5.31;100.00;102194.97;4134499;28;20125;-78
2023/04/16 01:23:26;;;;;;;2.78;1.70;;;6.20;99.90;;;5.29;100.00;102188.09;4135896;28;20035;-78
2023/04/16 01:25:27;;;;;;;4.95;2.30;;;6.20;99.90;;;5.31;100.00;102201.97;4134837;28;20053;-78
2023/04/16 01:27:27;;;;;;;7.65;2.60;;;6.20;99.90;;;5.27;100.00;102195.22;4128922;28;20034;-78
2023/04/16 01:29:28;;;;;;;3.67;1.92;;;6.10;99.90;;;5.27;100.00;102190.81;4134703;28;20466;-78
2023/04/16 01:31:29;;;;;;;4.10;1.88;;;6.10;99.90;;;5.28;100.00;102197.75;4134190;28;20030;-78
2023/04/16 01:33:30;;;;;;;4.97;1.80;;;6.10;99.90;;;5.23;100.00;102202.38;4134611;28;20038;-78
2023/04/16 01:35:31;;;;;;;3.63;2.70;;;6.10;99.90;;;5.00;100.00;102168.84;4143011;28;20033;-78
2023/04/16 01:37:32;;;;;;;2.88;2.00;;;6.00;99.90;;;5.05;100.00;102198.16;4134458;28;20039;-78
2023/04/16 01:39:33;;;;;;;5.20;2.08;;;6.00;99.90;;;5.05;100.00;102202.59;4134668;28;20023;-78
2023/04/16 01:41:35;;;;;;;4.53;2.15;;;5.90;99.90;;;5.00;100.00;102195.84;4134463;28;20521;-78
2023/04/16 01:43:35;;;;;;;3.00;2.10;;;5.90;99.90;;;5.02;100.00;102208.81;4118401;28;20157;-78
2023/04/16 01:45:36;;;;;;;4.93;2.00;;;5.90;99.90;;;4.99;100.00;102207.22;4129619;28;20461;-78
2023/04/16 01:47:37;;;;;;;3.58;2.47;;;5.90;99.90;;;4.97;100.00;102203.00;4135911;28;20031;-78
2023/04/16 01:49:38;;;;;;;5.13;2.80;;;5.80;99.90;;;4.94;100.00;102203.16;4137870;28;20106;-78
2023/04/16 01:51:39;;;;;;;4.00;2.13;;;5.80;99.90;;;4.93;100.00;102206.69;4132565;28;20026;-78
2023/04/16 01:53:40;;;;;;;7.05;2.88;;;5.80;99.90;;;4.90;100.00;102199.00;4137357;28;20064;-78
2023/04/16 01:55:41;;;;;;;5.28;2.80;;;5.70;99.90;;;4.96;100.00;102201.28;4137428;28;20034;-78
2023/04/16 01:57:42;;;;;;;6.82;3.38;;;5.80;99.90;;;4.99;100.00;102209.81;4138993;28;20564;-78
2023/04/16 01:59:43;;;;;;;6.93;3.70;;;5.80;99.90;;;4.98;100.00;102189.84;4137609;28;20030;-78
2023/04/16 02:01:44;;;;;;;4.55;2.55;;;5.80;99.90;;;5.01;100.00;102200.13;4122601;28;20030;-78
2023/04/16 02:03:45;;;;;;;3.90;2.40;;;5.80;99.90;;;4.96;100.00;102207.38;4151169;28;20105;-78
2023/04/16 02:05:46;;;;;;;5.40;3.22;;;5.80;99.90;;;4.88;100.00;102206.09;4153925;28;20540;-78
2023/04/16 02:07:47;;;;;;;7.97;2.78;;;5.70;99.90;;;4.79;100.00;102209.22;4138612;28;20026;-78
2023/04/16 02:09:51;;;;;;;6.97;3.20;;;5.70;99.90;;;4.74;100.00;102208.63;4138032;28;20086;-79
2023/04/16 02:11:52;;;;;;;5.53;2.85;;;5.60;99.90;;;4.73;100.00;102199.94;4134286;28;20030;-78
2023/04/16 02:13:53;;;;;;;6.03;2.67;;;5.60;99.90;;;4.72;100.00;102207.88;4126737;28;20038;-78
2023/04/16 02:15:54;;;;;;;7.32;3.55;;;5.60;99.90;;;4.67;100.00;102200.28;4121255;28;20038;-78
2023/04/16 02:17:55;;;;;;;6.80;2.67;;;5.60;99.90;;;4.69;100.00;102206.25;4131976;28;20434;-78
2023/04/16 02:19:56;;;;;;;3.92;2.35;;;5.60;99.90;;;4.62;100.00;102198.84;4153393;28;20483;-78
2023/04/16 02:21:57;;;;;;;3.70;2.42;;;5.50;99.90;;;4.55;100.00;102200.09;4134416;28;20030;-78
2023/04/16 02:23:58;;;;;;;5.68;2.47;;;5.50;99.90;;;4.51;100.00;102201.19;4128237;28;20030;-78
2023/04/16 02:25:59;;;;;;;4.35;3.00;;;5.40;99.90;;;4.56;100.00;102202.63;4131483;28;20027;-78
2023/04/16 02:28:00;;;;;;;3.60;2.42;;;5.40;99.90;;;4.54;100.00;102193.19;4137074;28;20030;-78
2023/04/16 02:30:03;;;;;;;5.15;2.47;;;5.40;99.90;;;4.58;100.00;102190.31;4126201;28;20105;-78
2023/04/16 02:32:04;;;;;;;5.15;2.45;;;5.40;99.90;;;4.55;100.00;102187.03;4131171;28;20027;-78
2023/04/16 02:34:05;;;;;;;4.30;2.20;;;5.50;99.90;;;4.58;100.00;102194.69;4131211;28;20034;-78
2023/04/16 02:36:06;;;;;;;6.38;2.42;;;5.40;99.90;;;4.57;100.00;102190.41;4134121;28;20512;-78
2023/04/16 02:38:08;;;;;;;6.47;2.40;;;5.40;99.90;;;4.57;100.00;102193.03;4120654;28;20034;-78
2023/04/16 02:40:10;;;;;;;5.50;2.08;;;5.40;99.90;;;4.53;100.00;102200.19;4138388;28;20066;-78
2023/04/16 02:42:11;;;;;;;7.38;2.80;;;5.40;99.90;;;4.50;100.00;102204.72;4133502;28;20068;-78
2023/04/16 02:44:11;;;;;;;5.65;2.70;;;5.40;99.90;;;4.31;100.00;102190.00;4138151;28;20050;-78
2023/04/16 02:46:12;;;;;;;6.65;2.67;;;5.40;99.90;;;4.36;100.00;102200.25;4138175;28;20034;-78
2023/04/16 02:48:13;;;;;;;4.45;2.75;;;5.30;99.90;;;4.43;100.00;102212.88;4136896;28;20023;-78
2023/04/16 02:50:15;;;;;;;5.93;3.20;;;5.30;99.90;;;4.38;100.00;102201.84;4136965;28;20045;-78
2023/04/16 02:52:15;;;;;;;4.97;2.60;;;5.30;99.90;;;4.47;100.00;102214.41;4125115;28;20105;-78
2023/04/16 02:54:16;;;;;;;5.53;2.85;;;5.30;99.90;;;4.45;100.00;102210.19;4136540;28;20030;-78
2023/04/16 02:56:17;;;;;;;4.90;2.80;;;5.30;99.90;;;4.41;100.00;102209.50;4120695;28;20038;-78
2023/04/16 02:58:20;;;;;;;4.50;2.70;;;5.40;99.90;;;4.40;100.00;102202.59;4129631;28;20057;-78
2023/04/16 03:00:21;;;;;;;8.82;3.90;;;5.30;99.90;;;4.45;100.00;102204.94;4131836;28;20037;-78
2023/04/16 03:02:22;;;;;;;6.68;3.13;;;5.30;99.90;;;4.42;100.00;102189.47;4122411;28;20031;-78
2023/04/16 03:04:23;;;;;;;5.20;3.03;;;5.30;99.90;;;4.56;100.00;102201.78;4121929;28;20122;-78
2023/04/16 03:06:25;;;;;;;6.45;3.00;;;5.40;99.90;;;4.51;100.00;102196.78;4121536;28;20154;-78
2023/04/16 03:08:26;;;;;;;6.05;2.72;;;5.40;99.90;;;4.45;100.00;102189.28;4132679;28;20026;-78
2023/04/16 03:10:27;;;;;;;6.22;2.65;;;5.40;99.90;;;4.45;100.00;102197.97;4135612;28;20026;-78
2023/04/16 03:12:28;;;;;;;7.40;2.80;;;5.40;99.90;;;4.43;100.00;102194.59;4136796;28;20553;-78
2023/04/16 03:14:30;;;;;;;5.25;2.30;;;5.30;99.90;;;4.42;100.00;102199.91;4136567;28;20038;-78
2023/04/16 03:16:31;;;;;;;5.07;2.78;;;5.30;99.90;;;4.46;100.00;102199.66;4132625;28;20449;-78
2023/04/16 03:18:31;;;;;;;3.97;2.47;;;5.40;99.90;;;4.43;100.00;102198.97;4137469;28;20069;-78
2023/04/16 03:20:32;;;;;;;5.35;3.75;;;5.40;99.90;;;4.40;100.00;102199.13;4136473;28;20402;-78
2023/04/16 03:22:33;;;;;;;6.30;2.90;;;5.30;99.90;;;4.36;100.00;102188.00;4128758;28;20035;-78
2023/04/16 03:24:34;;;;;;;4.88;3.15;;;5.30;99.90;;;4.41;100.00;102190.38;4126465;28;20372;-78
2023/04/16 03:26:35;;;;;;;4.47;2.70;;;5.30;99.90;;;4.44;100.00;102188.47;4136258;28;20038;-78
2023/04/16 03:28:36;;;;;;;4.47;2.70;;;5.30;99.90;;;4.51;100.00;102183.72;4126571;28;20022;-78
2023/04/16 03:30:37;;;;;;;6.72;3.20;;;5.30;99.90;;;4.55;100.00;102184.41;4136182;28;20030;-78
2023/04/16 03:32:38;;;;;;;9.82;3.60;;;5.40;99.90;;;4.58;100.00;102179.00;4126134;28;20023;-78
2023/04/16 03:34:40;;;;;;;5.72;2.65;;;5.40;99.90;;;4.58;100.00;102176.41;4134485;28;20074;-78
2023/04/16 03:36:40;;;;;;;15.98;3.00;;;5.50;99.90;;;4.60;100.00;102185.84;4136172;28;20061;-78
2023/04/16 03:38:41;;;;;;;4.65;2.97;;;5.50;99.90;;;4.56;100.00;102186.09;4127366;28;20034;-78
2023/04/16 03:40:42;;;;;;;5.55;2.70;;;5.40;99.90;;;4.50;100.00;102182.06;4137250;28;20037;-79
2023/04/16 03:42:43;;;;;;;5.60;2.97;;;5.40;99.90;;;4.41;100.00;102175.56;4132902;28;20445;-79
2023/04/16 03:44:44;;;;;;;5.65;2.92;;;5.40;99.90;;;4.45;100.00;102184.91;4135862;28;20053;-78
2023/04/16 03:46:45;;;;;;;6.32;3.13;;;5.30;99.90;;;4.37;100.00;102166.19;4152461;28;20026;-78
2023/04/16 03:48:46;;;;;;;6.30;2.67;;;5.30;99.90;;;4.45;100.00;102178.81;4135895;28;20589;-78
2023/04/16 03:50:47;;;;;;;3.55;2.72;;;5.40;99.90;;;4.48;100.00;102184.72;4135617;28;20018;-78
2023/04/16 03:52:48;;;;;;;4.80;2.70;;;5.40;99.90;;;4.46;100.00;102183.13;4126558;28;20026;-78
2023/04/16 03:54:49;;;;;;;6.90;2.85;;;5.30;99.90;;;4.44;100.00;102183.22;4137105;28;20093;-78
2023/04/16 03:56:50;;;;;;;7.28;3.08;;;5.30;99.90;;;4.44;100.00;102183.22;4136123;28;20482;-78
2023/04/16 03:58:51;;;;;;;6.97;3.40;;;5.30;99.90;;;4.42;100.00;102174.59;4133701;28;20106;-78
2023/04/16 04:00:54;;;;;;;9.32;4.18;;;5.30;99.90;;;4.44;100.00;102180.63;4135568;28;20058;-78
2023/04/16 04:02:55;;;;;;;7.28;3.70;;;5.30;99.90;;;4.48;100.00;102189.97;4137110;28;20478;-78
2023/04/16 04:04:56;;;;;;;6.25;4.25;;;5.30;99.90;;;4.51;100.00;102175.06;4135778;28;20050;-78
2023/04/16 04:06:57;;;;;;;8.25;4.07;;;5.40;99.90;;;4.43;100.00;102158.03;4132005;28;20026;-78
2023/04/16 04:08:58;;;;;;;6.95;4.05;;;5.40;99.90;;;4.56;100.00;102176.50;4135724;28;20031;-78
2023/04/16 04:10:59;;;;;;;9.43;5.20;;;5.40;99.90;;;4.54;100.00;102161.84;4126320;28;20018;-78
2023/04/16 04:13:04;;;;;;;8.85;3.75;;;5.40;99.90;;;4.57;100.00;102162.50;4126660;28;20046;-78
2023/04/16 04:15:05;;;;;;;7.57;3.30;;;5.40;99.90;;;4.55;100.00;102166.97;4132300;28;20403;-78
2023/04/16 04:17:07;;;;;;;9.07;4.13;;;5.40;99.90;;;4.48;100.00;102162.97;4136829;28;20085;-78
2023/04/16 04:19:08;;;;;;;6.70;3.20;;;5.40;99.90;;;4.35;100.00;102151.53;4119683;28;20049;-78
2023/04/16 04:21:09;;;;;;;6.03;2.95;;;5.30;99.90;;;4.39;100.00;102172.16;4130025;28;20026;-78
2023/04/16 04:23:10;;;;;;;7.35;2.97;;;5.30;99.90;;;4.35;100.00;102181.09;4122498;28;20113;-78
2023/04/16 04:25:11;;;;;;;7.10;3.22;;;5.20;99.90;;;4.31;100.00;102186.56;4120559;28;20054;-78
2023/04/16 04:27:12;;;;;;;5.45;3.10;;;5.20;99.90;;;4.25;100.00;102179.88;4125613;28;20029;-78
2023/04/16 04:29:13;;;;;;;8.65;3.28;;;5.20;99.90;;;4.27;100.00;102185.88;4130095;28;20034;-78
2023/04/16 04:31:14;;;;;;;12.00;4.13;;;5.20;99.90;;;4.28;100.00;102182.34;4136487;28;20449;-78
2023/04/16 04:33:15;;;;;;;5.07;3.35;;;5.10;99.90;;;4.28;100.00;102177.13;4119827;28;20169;-78
2023/04/16 04:35:16;;;;;;;4.82;3.35;;;5.10;99.90;;;4.28;100.00;102181.50;4126277;28;20030;-78
2023/04/16 04:37:16;;;;;;;4.88;2.97;;;5.20;99.90;;;4.20;100.00;102176.69;4135006;28;20034;-78
2023/04/16 04:39:20;;;;;;;10.38;4.30;;;5.10;99.90;;;4.23;100.00;102175.66;4135255;28;20027;-78
2023/04/16 04:41:21;;;;;;;7.13;4.03;;;5.10;99.90;;;4.26;100.00;102176.38;4135112;28;20038;-78
2023/04/16 04:43:22;;;;;;;5.72;3.30;;;5.10;99.90;;;4.26;100.00;102173.75;4134860;28;20520;-78
2023/04/16 04:45:26;;;;;;;6.95;2.95;;;5.20;99.90;;;4.19;100.00;102174.97;4135242;28;20609;-78
2023/04/16 04:47:27;;;;;;;5.10;3.15;;;5.10;99.90;;;4.18;100.00;102182.91;4131616;28;20034;-78
2023/04/16 04:49:29;;;;;;;4.82;2.97;;;5.10;99.90;;;4.12;100.00;102188.47;4118825;28;20026;-78
2023/04/16 04:51:30;;;;;;;7.03;3.08;;;5.00;99.90;;;4.06;100.00;102194.00;4128544;28;20482;-78
2023/04/16 04:53:31;;;;;;;5.82;3.25;;;5.00;99.90;;;3.96;100.00;102185.78;4151388;28;20437;-78
2023/04/16 04:55:32;;;;;;;7.05;3.65;;;4.90;99.90;;;3.92;100.00;102189.47;4151297;28;20037;-78
2023/04/16 04:57:33;;;;;;;7.35;3.55;;;4.90;99.90;;;3.92;100.00;102197.28;4136088;28;20030;-78
2023/04/16 04:59:33;;;;;;;8.65;4.07;;;4.90;99.90;;;3.91;100.00;102193.00;4135220;28;20042;-78
2023/04/16 05:01:34;;;;;;;5.38;3.28;;;4.80;99.90;;;3.92;100.00;102192.06;4127558;28;20026;-78
2023/04/16 05:03:35;;;;;;;6.43;3.22;;;4.80;99.90;;;3.91;100.00;102191.22;4131829;28;20030;-78
2023/04/16 05:05:40;;;;;;;6.85;3.42;;;4.80;99.90;;;3.96;100.00;102191.00;4134945;28;20084;-78
2023/04/16 05:07:41;;;;;;;5.38;2.67;;;4.80;99.90;;;3.97;100.00;102197.06;4124471;28;20525;-78
2023/04/16 05:09:42;;;;;;;4.70;3.10;;;4.80;99.90;;;3.97;100.00;102203.16;4135028;28;20033;-78
2023/04/16 05:11:42;;;;;;;4.03;2.83;;;4.80;99.90;;;4.00;100.00;102189.94;4134807;28;20038;-78
2023/04/16 05:13:43;;;;;;;6.00;2.88;;;4.90;99.90;;;4.04;100.00;102201.88;4134805;28;20510;-78
2023/04/16 05:15:44;;;;;;;6.50;3.63;;;4.90;99.90;;;4.04;100.00;102187.97;4136249;28;20109;-78
2023/04/16 05:17:45;;;;;;;7.85;3.20;;;4.90;99.90;;;4.07;100.00;102204.34;4136148;28;20030;-78
2023/04/16 05:19:46;;;;;;;3.53;2.72;;;4.90;99.90;;;4.04;100.00;102199.28;4134625;28;20030;-78
2023/04/16 05:21:47;;;;;;;17.23;4.38;;;4.90;99.90;;;3.98;100.00;102203.97;4134670;28;20041;-78
2023/04/16 05:23:48;;;;;;;5.70;3.20;;;4.90;99.90;;;3.82;100.00;102196.91;4137876;28;20478;-78
2023/04/16 05:25:49;;;;;;;8.20;4.15;;;4.80;99.90;;;3.79;100.00;102201.47;4138066;28;20041;-79
2023/04/16 05:27:49;;;;;;;7.82;3.83;;;4.80;99.90;;;3.80;100.00;102210.97;4138258;28;20030;-78
2023/04/16 05:29:50;;;;;;;6.95;4.05;;;4.70;99.90;;;3.63;100.00;102177.03;4137883;28;20486;-78
2023/04/16 05:31:52;;;;;;;9.88;3.60;;;4.70;99.90;;;3.74;100.00;102198.22;4139560;28;20053;-79
2023/04/16 05:33:52;;;;;;;6.00;4.18;;;4.70;99.90;;;3.77;100.00;102206.75;4139286;28;20092;-79
2023/04/16 05:35:53;;;;;;;7.47;4.60;;;4.70;99.90;;;3.84;100.00;102212.50;4121727;28;20031;-79
2023/04/16 05:37:54;;;;;;;6.72;4.47;;;4.70;99.90;;;3.89;100.00;102207.88;4139018;28;20054;-79
2023/04/16 05:39:55;;;;;;;6.55;4.35;;;4.70;99.90;;;3.86;100.00;102206.28;4135408;28;20034;-78
2023/04/16 05:41:56;;;;;;;8.73;4.43;;;4.70;99.90;;;3.95;100.00;102211.94;4128637;28;20029;-78
2023/04/16 05:43:57;;;;;;;7.85;4.57;;;4.80;99.90;;;4.00;100.00;102210.81;4128927;28;20061;-78
2023/04/16 05:45:58;;;;;;;8.63;4.15;;;4.80;99.90;;;3.99;100.00;102213.50;4134774;28;20033;-78
2023/04/16 05:47:58;;;;;;;5.93;3.75;;;4.80;99.90;;;3.86;100.00;102205.44;4126345;28;20030;-79
2023/04/16 05:49:59;;;;;;;6.88;4.22;;;4.80;99.90;;;3.96;100.00;102218.88;4137874;28;20022;-78
2023/04/16 05:52:00;;;;;;;5.50;3.80;;;4.80;99.90;;;3.92;100.00;102215.56;4131116;28;20030;-78
2023/04/16 05:54:01;;;;;;;7.32;4.60;;;4.80;99.90;;;3.92;100.00;102210.34;4134695;28;20028;-79
2023/04/16 05:56:02;;;;;;;8.25;5.10;;;4.80;99.90;;;4.01;100.00;102229.91;4153995;28;20139;-79
2023/04/16 05:58:03;;;;;;;5.47;3.70;;;4.80;99.90;;;3.98;100.00;102220.47;4137530;28;20516;-78
2023/04/16 06:00:05;;;;;;;7.05;3.55;;;4.90;99.90;;;4.05;100.00;102223.63;4121621;28;20034;-79
2023/04/16 06:02:06;;;;;;;6.72;3.83;;;4.90;99.90;;;4.07;100.00;102220.00;4137648;28;20492;-79
2023/04/16 06:04:07;;;;;;;9.38;4.50;;;4.90;99.90;;;4.03;100.00;102207.19;4153648;28;20094;-79
2023/04/16 06:06:08;;;;;;;7.97;4.57;;;4.90;99.90;;;4.06;100.00;102200.03;4138531;28;20027;-79
2023/04/16 06:08:09;;;;;;;5.95;3.22;;;5.00;99.90;;;4.19;100.00;102224.59;4128814;28;20054;-79
2023/04/16 06:10:10;;;;;;;7.70;3.63;;;5.00;99.90;;;4.14;100.00;102216.16;4124130;28;20031;-79
2023/04/16 06:12:11;;;;;;;4.85;3.92;;;5.00;99.90;;;4.14;100.00;102216.16;4138562;28;20177;-79
2023/04/16 06:14:12;;;;;;;7.47;3.45;;;5.00;99.90;;;4.12;100.00;102227.63;4137404;28;20074;-79
2023/04/16 06:16:13;;;;;;;6.68;3.80;;;5.00;99.90;;;4.11;100.00;102232.00;4138596;28;20030;-79
2023/04/16 06:18:14;;;;;;;11.07;4.30;;;5.00;99.90;;;4.00;100.00;102207.34;4137226;28;20054;-80
2023/04/16 06:20:15;;;;;;;11.02;5.45;;;5.00;99.90;;;4.11;100.00;102225.94;4137405;28;20371;-80
2023/04/16 06:22:16;;;;;;;8.85;4.72;;;5.00;99.90;;;4.22;100.00;102234.03;4137169;28;20030;-80
2023/04/16 06:24:17;;;;;;;5.88;4.50;;;5.10;99.90;;;4.28;100.00;102231.13;4113149;28;20073;-80
2023/04/16 06:26:18;;;;;;;8.88;5.35;;;5.10;99.90;;;4.41;100.00;102243.47;4137147;28;20037;-79
2023/04/16 06:28:19;;;;;;;9.73;5.18;;;5.20;99.90;;;4.51;100.00;102238.59;4134160;28;20113;-80
2023/04/16 06:30:20;;;;;;;9.85;5.30;;;5.30;99.90;;;4.67;100.00;102242.09;4142005;28;20058;-80
2023/04/16 06:32:21;;;;;;;10.63;7.60;;;5.40;99.90;;;4.75;100.00;102239.91;4138591;28;20433;-80
2023/04/16 06:34:22;;;;;;;11.80;8.35;;;5.50;99.90;;;4.82;100.00;102225.59;4136572;28;20046;-80
2023/04/16 06:36:23;;;;;;;11.30;9.10;;;5.70;99.90;;;4.96;100.00;102233.53;4135578;28;20026;-80
2023/04/16 06:38:24;;;;;;;14.90;8.05;;;5.70;99.90;;;5.09;100.00;102238.94;4133367;28;20054;-80
2023/04/16 06:40:25;;;;;;;12.63;10.55;;;5.80;99.90;;;5.19;100.00;102240.13;4122124;28;20026;-81
2023/04/16 06:42:26;;;;;;;14.75;11.60;;;5.90;99.90;;;5.24;100.00;102240.69;4132192;28;20037;-79
2023/04/16 06:44:27;;;;;;;16.98;11.88;;;6.00;99.90;;;5.33;100.00;102249.81;4120335;28;20035;-87
2023/04/16 06:46:28;;;;;;;15.45;11.15;;;6.20;99.90;;;5.43;100.00;102253.59;4120820;28;20106;-79
2023/04/16 06:48:29;;;;;;;14.13;10.38;;;6.20;99.90;;;5.37;100.00;102228.63;4136845;28;20497;-80
2023/04/16 06:50:29;;;;;;;17.50;9.80;;;6.30;99.90;;;5.51;100.00;102239.16;4125662;28;20038;-80
2023/04/16 06:52:30;;;;;;;12.68;9.73;;;6.40;99.90;;;5.63;100.00;102250.69;4118784;28;20053;-80
2023/04/16 06:54:31;;;;;;;12.52;7.78;;;6.40;99.90;;;5.76;100.00;102262.16;4138095;28;20406;-79
2023/04/16 06:56:32;;;;;;;10.15;6.68;;;6.50;99.90;;;5.74;100.00;102243.06;4138016;28;20034;-80
2023/04/16 06:58:33;;;;;;;14.40;7.38;;;6.60;99.90;;;5.79;100.00;102240.19;4136569;28;20041;-79
2023/04/16 07:00:34;;;;;;;13.55;7.90;;;6.70;99.90;;;5.85;100.00;102240.72;4122455;28;20054;-80
2023/04/16 07:02:35;;;;;;;10.55;7.70;;;6.70;99.90;;;5.83;100.00;102241.69;4126372;28;20030;-79
2023/04/16 07:04:36;;;;;;;19.88;13.07;;;6.80;99.90;;;5.92;100.00;102256.91;4138005;28;20023;-79
2023/04/16 07:06:36;;;;;;;17.52;11.70;;;6.80;99.90;;;5.98;100.00;102262.63;4136399;28;20030;-80
2023/04/16 07:08:37;;;;;;;13.25;10.65;;;6.80;99.90;;;5.96;100.00;102255.81;4133762;28;20026;-79
2023/04/16 07:10:38;;;;;;;13.75;8.77;;;6.90;99.90;;;6.01;100.00;102262.44;4125870;28;20026;-80
2023/04/16 07:12:39;;;;;;;16.77;11.90;;;6.90;99.90;;;6.08;100.00;102262.94;4136596;28;20517;-79
2023/04/16 07:14:40;;;;;;;10.57;9.07;;;7.00;99.90;;;6.15;100.00;102259.03;4130979;28;20037;-80
2023/04/16 07:16:41;;;;;;;13.73;9.98;;;7.00;99.90;;;6.20;100.00;102262.22;4135183;28;20034;-79
2023/04/16 07:18:42;;;;;;;12.27;8.35;;;7.10;99.90;;;6.38;100.00;102271.63;4136489;28;20061;-79
2023/04/16 07:20:43;;;;;;;12.52;7.38;;;7.20;99.90;;;6.37;100.00;102254.19;4136701;28;20030;-81
2023/04/16 07:22:44;;;;;;;9.18;7.28;;;7.30;99.90;;;6.51;100.00;102269.91;4137250;28;20030;-80
2023/04/16 07:24:45;;;;;;;9.43;6.63;;;7.40;99.90;;;6.56;100.00;102267.88;4136380;28;20078;-81
2023/04/16 07:26:45;;;;;;;10.30;6.10;;;7.40;99.90;;;6.60;100.00;102256.25;4125180;28;20026;-81
2023/04/16 07:28:46;;;;;;;8.38;6.13;;;7.50;99.90;;;6.72;100.00;102264.34;4152554;28;20022;-80
2023/04/16 07:30:47;;;;;;;9.40;5.70;;;7.60;99.90;;;6.88;100.00;102279.00;4136195;28;20065;-81
2023/04/16 07:32:50;;;;;;;9.77;5.40;;;7.60;99.90;;;6.92;100.00;102269.19;4134463;28;20048;-81
2023/04/16 07:34:51;;;;;;;9.13;5.10;;;7.80;99.90;;;6.96;100.00;102266.25;4137391;28;20568;-81
2023/04/16 07:36:52;;;;;;;8.55;5.88;;;7.80;99.90;;;7.02;100.00;102268.50;4131602;28;20023;-81
2023/04/16 07:38:52;;;;;;;9.25;4.80;;;7.90;99.90;;;7.13;100.00;102267.84;4129101;28;20034;-81
2023/04/16 07:40:55;;;;;;;7.60;5.38;;;8.00;99.90;;;7.30;100.00;102282.50;4133534;28;20494;-81
2023/04/16 07:42:56;;;;;;;11.50;5.75;;;8.10;99.90;;;7.37;100.00;102268.91;4134586;28;20145;-81
2023/04/16 07:44:57;;;;;;;10.85;6.03;;;8.20;99.90;;;7.55;100.00;102278.25;4121246;28;20110;-80
2023/04/16 07:46:58;;;;;;;8.25;4.93;;;8.30;99.90;;;7.65;100.00;102278.47;4120439;28;20022;-81
2023/04/16 07:48:59;;;;;;;9.73;5.55;;;8.50;99.90;;;7.73;100.00;102266.53;4121078;28;20033;-81
2023/04/16 07:51:00;;;;;;;9.93;4.97;;;8.60;99.90;;;7.90;100.00;102270.66;4120714;28;20027;-81
2023/04/16 07:53:01;;;;;;;8.13;4.82;;;8.80;99.90;;;8.05;100.00;102266.19;4121144;28;20034;-82
2023/04/16 07:55:02;;;;;;;9.77;4.40;;;9.00;99.90;;;8.27;100.00;102274.31;4128279;28;20478;-81
2023/04/16 07:57:02;;;;;;;8.27;4.38;;;9.10;99.90;;;8.33;100.00;102271.31;4124441;28;20026;-80
2023/04/16 07:59:03;;;;;;;7.40;4.68;;;9.20;99.90;;;8.45;100.00;102262.59;4135670;28;20058;-80
2023/04/16 08:01:04;;;;;;;8.05;4.18;;;9.30;99.90;;;8.57;100.00;102274.84;4135864;28;20097;-81
2023/04/16 08:03:05;;;;;;;6.82;4.80;;;9.40;99.90;;;8.69;100.00;102292.44;4127908;28;20025;-81
2023/04/16 08:05:07;;;;;;;9.93;6.60;;;9.50;99.90;;;8.74;100.00;102286.88;4137010;28;20391;-81
2023/04/16 08:07:08;;;;;;;9.48;6.35;;;9.60;99.90;;;8.77;100.00;102281.38;4136166;28;20032;-81
2023/04/16 08:09:08;;;;;;;8.52;6.05;;;9.60;99.90;;;8.85;100.00;102287.78;4131988;28;20027;-82
2023/04/16 08:11:10;;;;;;;8.20;5.07;;;9.70;99.90;;;8.91;100.00;102276.00;4120731;28;20077;-81
2023/04/16 08:13:10;;;;;;;7.82;5.90;;;9.80;99.90;;;9.09;100.00;102290.50;4130641;28;20069;-81
2023/04/16 08:15:11;;;;;;;8.20;4.90;;;9.90;99.90;;;9.19;100.00;102288.06;4135000;28;20390;-81
2023/04/16 08:17:14;;;;;;;10.70;5.85;;;10.10;99.90;;;9.23;100.00;102265.78;4135755;28;20022;-81
2023/04/16 08:19:15;;;;;;;13.55;6.38;;;10.20;99.90;;;9.30;100.00;102264.41;4135419;28;20037;-82
2023/04/16 08:21:16;;;;;;;6.68;5.57;;;10.30;99.90;;;9.53;100.00;102287.28;4136422;28;20105;-82
2023/04/16 08:23:17;;;;;;;10.73;5.55;;;10.40;99.90;;;9.58;100.00;102281.69;4135232;28;20030;-81
2023/04/16 08:25:19;;;;;;;8.43;5.65;;;10.50;99.90;;;9.75;100.00;102287.41;4125396;28;20022;-81
2023/04/16 08:27:20;;;;;;;6.70;4.53;;;10.60;99.90;;;9.74;100.00;102275.19;4136804;28;20412;-81